sensor_id;sensor_type;location;lat;lon;timestamp;P1;durP1;ratioP1;P2;durP2;ratioP2
20830;SDS011;10576;53.556;9.868;2023-05-07T00:01:45;12.90;;;10.50;;
20830;SDS011;10576;53.556;9.868;2023-05-07T00:04:11;12.50;;;11.20;;
20830;SDS011;10576;53.556;9.868;2023-05-07T00:06:38;13.25;;;11.55;;
20830;SDS011;10576;53.556;9.868;2023-05-07T00:09:05;13.15;;;11.77;;
20830;SDS011;10576;53.556;9.868;2023-05-07T00:11:32;14.70;;;12.23;;
20830;SDS011;10576;53.556;9.868;2023-05-07T00:13:58;13.90;;;12.32;;
20830;SDS011;10576;53.556;9.868;2023-05-07T00:16:23;14.23;;;12.15;;
20830;SDS011;10576;53.556;9.868;2023-05-07T00:18:49;13.27;;;11.77;;
20830;SDS011;10576;53.556;9.868;2023-05-07T00:21:15;13.53;;;11.83;;
20830;SDS011;10576;53.556;9.868;2023-05-07T00:23:41;12.50;;;11.20;;
20830;SDS011;10576;53.556;9.868;2023-05-07T00:26:06;12.50;;;11.20;;
20830;SDS011;10576;53.556;9.868;2023-05-07T00:28:32;12.43;;;11.00;;
20830;SDS011;10576;53.556;9.868;2023-05-07T00:30:58;12.30;;;10.82;;
20830;SDS011;10576;53.556;9.868;2023-05-07T00:33:23;12.15;;;10.68;;
20830;SDS011;10576;53.556;9.868;2023-05-07T00:35:52;12.80;;;11.10;;
20830;SDS011;10576;53.556;9.868;2023-05-07T00:38:19;13.13;;;11.48;;
20830;SDS011;10576;53.556;9.868;2023-05-07T00:40:45;11.55;;;10.40;;
20830;SDS011;10576;53.556;9.868;2023-05-07T00:43:11;12.27;;;10.52;;
20830;SDS011;10576;53.556;9.868;2023-05-07T00:45:37;11.90;;;10.20;;
20830;SDS011;10576;53.556;9.868;2023-05-07T00:48:04;11.55;;;10.40;;
20830;SDS011;10576;53.556;9.868;2023-05-07T00:50:30;10.85;;;9.55;;
20830;SDS011;10576;53.556;9.868;2023-05-07T00:52:56;11.32;;;9.63;;
20830;SDS011;10576;53.556;9.868;2023-05-07T00:55:22;10.85;;;9.73;;
20830;SDS011;10576;53.556;9.868;2023-05-07T00:57:48;12.07;;;9.18;;
20830;SDS011;10576;53.556;9.868;2023-05-07T01:00:15;11.05;;;9.10;;
20830;SDS011;10576;53.556;9.868;2023-05-07T01:02:41;9.97;;;8.97;;
20830;SDS011;10576;53.556;9.868;2023-05-07T01:05:09;9.90;;;8.90;;
20830;SDS011;10576;53.556;9.868;2023-05-07T01:07:40;9.52;;;8.38;;
20830;SDS011;10576;53.556;9.868;2023-05-07T01:10:06;9.52;;;8.52;;
20830;SDS011;10576;53.556;9.868;2023-05-07T01:12:34;9.50;;;8.50;;
20830;SDS011;10576;53.556;9.868;2023-05-07T01:15:02;8.90;;;7.88;;
20830;SDS011;10576;53.556;9.868;2023-05-07T01:17:29;9.10;;;8.20;;
20830;SDS011;10576;53.556;9.868;2023-05-07T01:20:03;9.73;;;8.68;;
20830;SDS011;10576;53.556;9.868;2023-05-07T01:22:35;9.63;;;8.40;;
20830;SDS011;10576;53.556;9.868;2023-05-07T01:25:02;9.82;;;8.48;;
20830;SDS011;10576;53.556;9.868;2023-05-07T01:27:28;8.93;;;8.02;;
20830;SDS011;10576;53.556;9.868;2023-05-07T01:29:54;11.90;;;9.50;;
20830;SDS011;10576;53.556;9.868;2023-05-07T01:32:27;10.85;;;9.60;;
20830;SDS011;10576;53.556;9.868;2023-05-07T01:34:58;10.98;;;8.95;;
20830;SDS011;10576;53.556;9.868;2023-05-07T01:37:26;10.82;;;9.50;;
20830;SDS011;10576;53.556;9.868;2023-05-07T01:39:52;9.93;;;8.97;;
20830;SDS011;10576;53.556;9.868;2023-05-07T01:42:19;9.55;;;8.65;;
20830;SDS011;10576;53.556;9.868;2023-05-07T01:44:44;9.48;;;8.57;;
20830;SDS011;10576;53.556;9.868;2023-05-07T01:47:11;9.00;;;7.93;;
20830;SDS011;10576;53.556;9.868;2023-05-07T01:49:37;9.23;;;8.23;;
20830;SDS011;10576;53.556;9.868;2023-05-07T01:52:03;9.20;;;8.25;;
20830;SDS011;10576;53.556;9.868;2023-05-07T01:54:29;9.27;;;8.38;;
20830;SDS011;10576;53.556;9.868;2023-05-07T01:56:56;8.53;;;7.73;;
20830;SDS011;10576;53.556;9.868;2023-05-07T01:59:22;8.40;;;7.60;;
20830;SDS011;10576;53.556;9.868;2023-05-07T02:01:49;9.00;;;8.20;;
20830;SDS011;10576;53.556;9.868;2023-05-07T02:04:14;8.75;;;7.85;;
20830;SDS011;10576;53.556;9.868;2023-05-07T02:06:40;8.13;;;7.33;;
20830;SDS011;10576;53.556;9.868;2023-05-07T02:09:06;8.90;;;8.00;;
20830;SDS011;10576;53.556;9.868;2023-05-07T02:11:33;8.30;;;7.50;;
20830;SDS011;10576;53.556;9.868;2023-05-07T02:13:59;8.13;;;7.32;;
20830;SDS011;10576;53.556;9.868;2023-05-07T02:16:25;8.30;;;7.50;;
20830;SDS011;10576;53.556;9.868;2023-05-07T02:18:51;8.02;;;7.22;;
20830;SDS011;10576;53.556;9.868;2023-05-07T02:21:17;8.48;;;7.63;;
20830;SDS011;10576;53.556;9.868;2023-05-07T02:23:43;8.55;;;7.75;;
20830;SDS011;10576;53.556;9.868;2023-05-07T02:26:08;10.48;;;8.32;;
20830;SDS011;10576;53.556;9.868;2023-05-07T02:28:37;8.73;;;7.93;;
20830;SDS011;10576;53.556;9.868;2023-05-07T02:31:05;9.20;;;8.30;;
20830;SDS011;10576;53.556;9.868;2023-05-07T02:33:31;8.98;;;8.07;;
20830;SDS011;10576;53.556;9.868;2023-05-07T02:35:57;11.05;;;8.80;;
20830;SDS011;10576;53.556;9.868;2023-05-07T02:38:34;9.60;;;8.50;;
20830;SDS011;10576;53.556;9.868;2023-05-07T02:41:00;9.32;;;8.43;;
20830;SDS011;10576;53.556;9.868;2023-05-07T02:43:26;9.85;;;8.90;;
20830;SDS011;10576;53.556;9.868;2023-05-07T02:48:46;9.65;;;8.75;;
20830;SDS011;10576;53.556;9.868;2023-05-07T02:51:12;10.18;;;9.18;;
20830;SDS011;10576;53.556;9.868;2023-05-07T02:53:38;9.80;;;8.80;;
20830;SDS011;10576;53.556;9.868;2023-05-07T02:56:03;9.65;;;8.75;;
20830;SDS011;10576;53.556;9.868;2023-05-07T02:58:30;10.45;;;9.38;;
20830;SDS011;10576;53.556;9.868;2023-05-07T03:00:56;10.35;;;9.25;;
20830;SDS011;10576;53.556;9.868;2023-05-07T03:03:22;9.98;;;8.98;;
20830;SDS011;10576;53.556;9.868;2023-05-07T03:05:47;10.23;;;9.23;;
20830;SDS011;10576;53.556;9.868;2023-05-07T03:08:13;10.50;;;9.30;;
20830;SDS011;10576;53.556;9.868;2023-05-07T03:10:39;10.23;;;9.10;;
20830;SDS011;10576;53.556;9.868;2023-05-07T03:13:07;10.68;;;9.60;;
20830;SDS011;10576;53.556;9.868;2023-05-07T03:15:32;10.90;;;9.80;;
20830;SDS011;10576;53.556;9.868;2023-05-07T03:17:58;11.90;;;9.50;;
20830;SDS011;10576;53.556;9.868;2023-05-07T03:20:24;12.13;;;10.35;;
20830;SDS011;10576;53.556;9.868;2023-05-07T03:22:50;10.82;;;9.73;;
20830;SDS011;10576;53.556;9.868;2023-05-07T03:25:15;11.70;;;9.97;;
20830;SDS011;10576;53.556;9.868;2023-05-07T03:27:41;11.10;;;9.63;;
20830;SDS011;10576;53.556;9.868;2023-05-07T03:30:07;11.20;;;9.90;;
20830;SDS011;10576;53.556;9.868;2023-05-07T03:32:33;11.15;;;10.00;;
20830;SDS011;10576;53.556;9.868;2023-05-07T03:35:00;11.50;;;10.30;;
20830;SDS011;10576;53.556;9.868;2023-05-07T03:37:26;11.93;;;10.30;;
20830;SDS011;10576;53.556;9.868;2023-05-07T03:39:51;11.00;;;9.90;;
20830;SDS011;10576;53.556;9.868;2023-05-07T03:42:17;11.45;;;10.25;;
20830;SDS011;10576;53.556;9.868;2023-05-07T03:44:42;11.43;;;10.23;;
20830;SDS011;10576;53.556;9.868;2023-05-07T03:47:08;11.15;;;10.05;;
20830;SDS011;10576;53.556;9.868;2023-05-07T03:49:35;11.80;;;9.93;;
20830;SDS011;10576;53.556;9.868;2023-05-07T03:52:01;11.25;;;10.13;;
20830;SDS011;10576;53.556;9.868;2023-05-07T03:54:26;11.50;;;10.30;;
20830;SDS011;10576;53.556;9.868;2023-05-07T03:56:52;11.70;;;10.50;;
20830;SDS011;10576;53.556;9.868;2023-05-07T03:59:18;12.20;;;10.73;;
20830;SDS011;10576;53.556;9.868;2023-05-07T04:01:44;12.00;;;10.73;;
20830;SDS011;10576;53.556;9.868;2023-05-07T04:04:09;11.63;;;10.45;;
20830;SDS011;10576;53.556;9.868;2023-05-07T04:06:35;11.87;;;10.63;;
20830;SDS011;10576;53.556;9.868;2023-05-07T04:09:01;11.60;;;10.40;;
20830;SDS011;10576;53.556;9.868;2023-05-07T04:11:26;11.13;;;10.03;;
20830;SDS011;10576;53.556;9.868;2023-05-07T04:13:52;11.80;;;10.40;;
20830;SDS011;10576;53.556;9.868;2023-05-07T04:16:17;11.90;;;10.70;;
20830;SDS011;10576;53.556;9.868;2023-05-07T04:18:43;11.90;;;10.70;;
20830;SDS011;10576;53.556;9.868;2023-05-07T04:21:15;10.97;;;9.87;;
20830;SDS011;10576;53.556;9.868;2023-05-07T04:23:42;11.80;;;10.45;;
20830;SDS011;10576;53.556;9.868;2023-05-07T04:26:08;11.37;;;10.20;;
20830;SDS011;10576;53.556;9.868;2023-05-07T04:28:34;11.23;;;10.00;;
20830;SDS011;10576;53.556;9.868;2023-05-07T04:31:00;11.25;;;9.70;;
20830;SDS011;10576;53.556;9.868;2023-05-07T04:33:26;10.80;;;9.70;;
20830;SDS011;10576;53.556;9.868;2023-05-07T04:35:51;11.63;;;10.43;;
20830;SDS011;10576;53.556;9.868;2023-05-07T04:38:17;10.80;;;9.70;;
20830;SDS011;10576;53.556;9.868;2023-05-07T04:40:43;12.15;;;9.95;;
20830;SDS011;10576;53.556;9.868;2023-05-07T04:43:09;11.68;;;9.88;;
20830;SDS011;10576;53.556;9.868;2023-05-07T04:45:35;9.82;;;8.75;;
20830;SDS011;10576;53.556;9.868;2023-05-07T04:48:01;11.13;;;9.85;;
20830;SDS011;10576;53.556;9.868;2023-05-07T04:50:27;10.38;;;9.18;;
20830;SDS011;10576;53.556;9.868;2023-05-07T04:52:53;10.43;;;9.33;;
20830;SDS011;10576;53.556;9.868;2023-05-07T04:55:19;10.03;;;9.03;;
20830;SDS011;10576;53.556;9.868;2023-05-07T04:57:45;11.37;;;10.17;;
20830;SDS011;10576;53.556;9.868;2023-05-07T05:00:12;11.00;;;9.75;;
20830;SDS011;10576;53.556;9.868;2023-05-07T05:02:41;12.13;;;10.02;;
20830;SDS011;10576;53.556;9.868;2023-05-07T05:05:07;10.77;;;9.65;;
20830;SDS011;10576;53.556;9.868;2023-05-07T05:07:33;11.25;;;9.93;;
20830;SDS011;10576;53.556;9.868;2023-05-07T05:09:58;11.20;;;9.80;;
20830;SDS011;10576;53.556;9.868;2023-05-07T05:12:24;11.33;;;9.47;;
20830;SDS011;10576;53.556;9.868;2023-05-07T05:14:50;10.75;;;9.70;;
20830;SDS011;10576;53.556;9.868;2023-05-07T05:17:16;10.50;;;9.40;;
20830;SDS011;10576;53.556;9.868;2023-05-07T05:19:41;10.90;;;9.70;;
20830;SDS011;10576;53.556;9.868;2023-05-07T05:22:07;11.60;;;10.07;;
20830;SDS011;10576;53.556;9.868;2023-05-07T05:24:33;10.33;;;9.33;;
20830;SDS011;10576;53.556;9.868;2023-05-07T05:26:58;11.13;;;9.93;;
20830;SDS011;10576;53.556;9.868;2023-05-07T05:29:27;10.18;;;9.00;;
20830;SDS011;10576;53.556;9.868;2023-05-07T05:31:53;10.20;;;9.00;;
20830;SDS011;10576;53.556;9.868;2023-05-07T05:34:20;10.50;;;9.40;;
20830;SDS011;10576;53.556;9.868;2023-05-07T05:36:47;11.27;;;8.88;;
20830;SDS011;10576;53.556;9.868;2023-05-07T05:39:13;10.60;;;9.50;;
20830;SDS011;10576;53.556;9.868;2023-05-07T05:41:39;11.43;;;9.30;;
20830;SDS011;10576;53.556;9.868;2023-05-07T05:44:05;10.38;;;9.05;;
20830;SDS011;10576;53.556;9.868;2023-05-07T05:46:31;10.80;;;8.88;;
20830;SDS011;10576;53.556;9.868;2023-05-07T05:48:56;9.82;;;8.82;;
20830;SDS011;10576;53.556;9.868;2023-05-07T05:51:22;10.97;;;8.90;;
20830;SDS011;10576;53.556;9.868;2023-05-07T05:53:48;10.40;;;9.30;;
20830;SDS011;10576;53.556;9.868;2023-05-07T05:56:15;11.00;;;8.98;;
20830;SDS011;10576;53.556;9.868;2023-05-07T05:58:41;9.75;;;8.75;;
20830;SDS011;10576;53.556;9.868;2023-05-07T06:01:07;11.88;;;9.25;;
20830;SDS011;10576;53.556;9.868;2023-05-07T06:03:33;10.40;;;9.32;;
20830;SDS011;10576;53.556;9.868;2023-05-07T06:05:59;10.50;;;9.40;;
20830;SDS011;10576;53.556;9.868;2023-05-07T06:08:25;10.15;;;9.10;;
20830;SDS011;10576;53.556;9.868;2023-05-07T06:10:51;10.00;;;8.98;;
20830;SDS011;10576;53.556;9.868;2023-05-07T06:13:17;10.38;;;9.20;;
20830;SDS011;10576;53.556;9.868;2023-05-07T06:15:43;9.30;;;8.40;;
20830;SDS011;10576;53.556;9.868;2023-05-07T06:18:09;10.15;;;9.02;;
20830;SDS011;10576;53.556;9.868;2023-05-07T06:20:35;10.60;;;9.50;;
20830;SDS011;10576;53.556;9.868;2023-05-07T06:23:01;9.90;;;8.90;;
20830;SDS011;10576;53.556;9.868;2023-05-07T06:25:27;10.10;;;8.98;;
20830;SDS011;10576;53.556;9.868;2023-05-07T06:27:53;10.00;;;8.95;;
20830;SDS011;10576;53.556;9.868;2023-05-07T06:30:19;9.88;;;8.90;;
20830;SDS011;10576;53.556;9.868;2023-05-07T06:32:45;9.85;;;8.85;;
20830;SDS011;10576;53.556;9.868;2023-05-07T06:35:11;10.63;;;8.52;;
20830;SDS011;10576;53.556;9.868;2023-05-07T06:37:38;10.23;;;8.95;;
20830;SDS011;10576;53.556;9.868;2023-05-07T06:40:05;9.90;;;8.90;;
20830;SDS011;10576;53.556;9.868;2023-05-07T06:42:32;11.30;;;9.20;;
20830;SDS011;10576;53.556;9.868;2023-05-07T06:44:57;10.00;;;8.90;;
20830;SDS011;10576;53.556;9.868;2023-05-07T06:47:23;9.73;;;8.30;;
20830;SDS011;10576;53.556;9.868;2023-05-07T06:49:49;10.05;;;8.68;;
20830;SDS011;10576;53.556;9.868;2023-05-07T06:52:15;10.70;;;8.80;;
20830;SDS011;10576;53.556;9.868;2023-05-07T06:54:41;9.57;;;8.20;;
20830;SDS011;10576;53.556;9.868;2023-05-07T06:57:07;9.50;;;8.43;;
20830;SDS011;10576;53.556;9.868;2023-05-07T06:59:32;10.65;;;8.52;;
20830;SDS011;10576;53.556;9.868;2023-05-07T07:01:58;8.98;;;8.07;;
20830;SDS011;10576;53.556;9.868;2023-05-07T07:04:24;9.68;;;8.52;;
20830;SDS011;10576;53.556;9.868;2023-05-07T07:06:51;9.23;;;8.23;;
20830;SDS011;10576;53.556;9.868;2023-05-07T07:09:18;9.93;;;8.52;;
20830;SDS011;10576;53.556;9.868;2023-05-07T07:11:44;9.95;;;8.90;;
20830;SDS011;10576;53.556;9.868;2023-05-07T07:14:10;11.45;;;9.80;;
20830;SDS011;10576;53.556;9.868;2023-05-07T07:16:35;10.00;;;8.95;;
20830;SDS011;10576;53.556;9.868;2023-05-07T07:19:01;11.13;;;8.75;;
20830;SDS011;10576;53.556;9.868;2023-05-07T07:21:27;9.90;;;8.90;;
20830;SDS011;10576;53.556;9.868;2023-05-07T07:23:53;9.60;;;8.60;;
20830;SDS011;10576;53.556;9.868;2023-05-07T07:26:19;9.30;;;8.40;;
20830;SDS011;10576;53.556;9.868;2023-05-07T07:28:44;9.70;;;8.70;;
20830;SDS011;10576;53.556;9.868;2023-05-07T07:31:11;8.82;;;7.93;;
20830;SDS011;10576;53.556;9.868;2023-05-07T07:33:37;9.43;;;8.13;;
20830;SDS011;10576;53.556;9.868;2023-05-07T07:36:04;8.82;;;7.93;;
20830;SDS011;10576;53.556;9.868;2023-05-07T07:38:30;8.70;;;7.80;;
20830;SDS011;10576;53.556;9.868;2023-05-07T07:40:56;8.70;;;7.80;;
20830;SDS011;10576;53.556;9.868;2023-05-07T07:43:22;7.90;;;7.10;;
20830;SDS011;10576;53.556;9.868;2023-05-07T07:45:48;7.85;;;6.85;;
20830;SDS011;10576;53.556;9.868;2023-05-07T07:48:15;7.50;;;6.57;;
20830;SDS011;10576;53.556;9.868;2023-05-07T07:50:41;8.40;;;6.88;;
20830;SDS011;10576;53.556;9.868;2023-05-07T07:53:06;7.75;;;7.05;;
20830;SDS011;10576;53.556;9.868;2023-05-07T07:55:34;7.47;;;6.70;;
20830;SDS011;10576;53.556;9.868;2023-05-07T07:58:04;8.10;;;7.15;;
20830;SDS011;10576;53.556;9.868;2023-05-07T08:00:30;8.98;;;7.10;;
20830;SDS011;10576;53.556;9.868;2023-05-07T08:02:56;8.38;;;6.80;;
20830;SDS011;10576;53.556;9.868;2023-05-07T08:05:22;8.18;;;7.10;;
20830;SDS011;10576;53.556;9.868;2023-05-07T08:07:48;7.75;;;6.97;;
20830;SDS011;10576;53.556;9.868;2023-05-07T08:10:18;8.27;;;7.38;;
20830;SDS011;10576;53.556;9.868;2023-05-07T08:12:47;8.93;;;8.02;;
20830;SDS011;10576;53.556;9.868;2023-05-07T08:15:13;8.40;;;7.60;;
20830;SDS011;10576;53.556;9.868;2023-05-07T08:17:39;8.30;;;7.30;;
20830;SDS011;10576;53.556;9.868;2023-05-07T08:20:05;8.15;;;6.72;;
20830;SDS011;10576;53.556;9.868;2023-05-07T08:22:32;7.40;;;6.47;;
20830;SDS011;10576;53.556;9.868;2023-05-07T08:24:58;7.45;;;6.55;;
20830;SDS011;10576;53.556;9.868;2023-05-07T08:27:24;7.25;;;6.53;;
20830;SDS011;10576;53.556;9.868;2023-05-07T08:29:50;7.70;;;6.67;;
20830;SDS011;10576;53.556;9.868;2023-05-07T08:32:15;7.30;;;6.60;;
20830;SDS011;10576;53.556;9.868;2023-05-07T08:34:41;7.23;;;6.53;;
20830;SDS011;10576;53.556;9.868;2023-05-07T08:37:07;8.30;;;7.00;;
20830;SDS011;10576;53.556;9.868;2023-05-07T08:39:33;7.80;;;7.07;;
20830;SDS011;10576;53.556;9.868;2023-05-07T08:41:59;8.70;;;6.82;;
20830;SDS011;10576;53.556;9.868;2023-05-07T08:44:29;7.45;;;6.68;;
20830;SDS011;10576;53.556;9.868;2023-05-07T08:46:58;8.25;;;7.00;;
20830;SDS011;10576;53.556;9.868;2023-05-07T08:49:27;7.07;;;6.37;;
20830;SDS011;10576;53.556;9.868;2023-05-07T08:51:53;7.45;;;6.75;;
20830;SDS011;10576;53.556;9.868;2023-05-07T08:54:19;8.15;;;6.60;;
20830;SDS011;10576;53.556;9.868;2023-05-07T08:56:46;7.32;;;6.60;;
20830;SDS011;10576;53.556;9.868;2023-05-07T08:59:12;6.60;;;6.00;;
20830;SDS011;10576;53.556;9.868;2023-05-07T09:01:38;7.55;;;6.80;;
20830;SDS011;10576;53.556;9.868;2023-05-07T09:04:03;7.55;;;6.55;;
20830;SDS011;10576;53.556;9.868;2023-05-07T09:06:30;7.35;;;6.65;;
20830;SDS011;10576;53.556;9.868;2023-05-07T09:08:56;7.03;;;6.43;;
20830;SDS011;10576;53.556;9.868;2023-05-07T09:11:23;7.25;;;6.43;;
20830;SDS011;10576;53.556;9.868;2023-05-07T09:13:53;7.40;;;6.70;;
20830;SDS011;10576;53.556;9.868;2023-05-07T09:16:21;7.40;;;6.70;;
20830;SDS011;10576;53.556;9.868;2023-05-07T09:18:48;7.00;;;6.40;;
20830;SDS011;10576;53.556;9.868;2023-05-07T09:21:17;7.85;;;6.93;;
20830;SDS011;10576;53.556;9.868;2023-05-07T09:23:43;7.65;;;6.88;;
20830;SDS011;10576;53.556;9.868;2023-05-07T09:26:09;8.50;;;7.70;;
20830;SDS011;10576;53.556;9.868;2023-05-07T09:28:43;9.00;;;7.10;;
20830;SDS011;10576;53.556;9.868;2023-05-07T09:31:09;7.43;;;6.72;;
20830;SDS011;10576;53.556;9.868;2023-05-07T09:33:36;7.45;;;6.75;;
20830;SDS011;10576;53.556;9.868;2023-05-07T09:36:03;7.78;;;6.97;;
20830;SDS011;10576;53.556;9.868;2023-05-07T09:38:33;7.68;;;6.97;;
20830;SDS011;10576;53.556;9.868;2023-05-07T09:41:03;7.50;;;6.80;;
20830;SDS011;10576;53.556;9.868;2023-05-07T09:43:34;7.60;;;6.73;;
20830;SDS011;10576;53.556;9.868;2023-05-07T09:46:03;7.55;;;6.85;;
20830;SDS011;10576;53.556;9.868;2023-05-07T09:48:31;7.88;;;7.07;;
20830;SDS011;10576;53.556;9.868;2023-05-07T09:51:02;8.02;;;6.70;;
20830;SDS011;10576;53.556;9.868;2023-05-07T09:53:31;7.70;;;6.80;;
20830;SDS011;10576;53.556;9.868;2023-05-07T09:55:58;7.60;;;6.80;;
20830;SDS011;10576;53.556;9.868;2023-05-07T09:58:25;7.00;;;6.40;;
20830;SDS011;10576;53.556;9.868;2023-05-07T10:00:51;7.57;;;6.85;;
20830;SDS011;10576;53.556;9.868;2023-05-07T10:03:19;6.85;;;6.25;;
20830;SDS011;10576;53.556;9.868;2023-05-07T10:05:45;7.72;;;7.00;;
20830;SDS011;10576;53.556;9.868;2023-05-07T10:08:12;9.70;;;6.50;;
20830;SDS011;10576;53.556;9.868;2023-05-07T10:10:39;6.90;;;6.30;;
20830;SDS011;10576;53.556;9.868;2023-05-07T10:13:06;6.95;;;6.35;;
20830;SDS011;10576;53.556;9.868;2023-05-07T10:15:35;7.35;;;6.65;;
20830;SDS011;10576;53.556;9.868;2023-05-07T10:18:03;7.18;;;6.47;;
20830;SDS011;10576;53.556;9.868;2023-05-07T10:20:29;7.17;;;6.47;;
20830;SDS011;10576;53.556;9.868;2023-05-07T10:22:56;8.20;;;6.57;;
20830;SDS011;10576;53.556;9.868;2023-05-07T10:25:30;7.60;;;6.47;;
20830;SDS011;10576;53.556;9.868;2023-05-07T10:27:57;7.25;;;6.60;;
20830;SDS011;10576;53.556;9.868;2023-05-07T10:30:44;7.35;;;6.60;;
20830;SDS011;10576;53.556;9.868;2023-05-07T10:33:19;7.82;;;7.03;;
20830;SDS011;10576;53.556;9.868;2023-05-07T10:35:51;7.82;;;7.07;;
20830;SDS011;10576;53.556;9.868;2023-05-07T10:38:20;7.57;;;6.88;;
20830;SDS011;10576;53.556;9.868;2023-05-07T10:40:46;7.80;;;6.40;;
20830;SDS011;10576;53.556;9.868;2023-05-07T10:43:11;7.25;;;6.32;;
20830;SDS011;10576;53.556;9.868;2023-05-07T10:45:37;6.90;;;6.28;;
20830;SDS011;10576;53.556;9.868;2023-05-07T10:50:35;7.22;;;6.53;;
20830;SDS011;10576;53.556;9.868;2023-05-07T10:55:46;6.70;;;5.88;;
20830;SDS011;10576;53.556;9.868;2023-05-07T11:00:56;6.80;;;6.20;;
20830;SDS011;10576;53.556;9.868;2023-05-07T11:03:23;6.85;;;6.25;;
20830;SDS011;10576;53.556;9.868;2023-05-07T11:06:08;6.88;;;6.18;;
20830;SDS011;10576;53.556;9.868;2023-05-07T11:08:55;7.15;;;6.55;;
20830;SDS011;10576;53.556;9.868;2023-05-07T11:14:40;6.88;;;6.28;;
20830;SDS011;10576;53.556;9.868;2023-05-07T11:17:08;6.75;;;6.05;;
20830;SDS011;10576;53.556;9.868;2023-05-07T11:19:47;6.60;;;5.53;;
20830;SDS011;10576;53.556;9.868;2023-05-07T11:25:06;6.47;;;5.93;;
20830;SDS011;10576;53.556;9.868;2023-05-07T11:27:32;7.47;;;6.03;;
20830;SDS011;10576;53.556;9.868;2023-05-07T11:29:58;7.30;;;6.00;;
20830;SDS011;10576;53.556;9.868;2023-05-07T11:32:26;6.53;;;5.82;;
20830;SDS011;10576;53.556;9.868;2023-05-07T11:34:54;6.60;;;6.00;;
20830;SDS011;10576;53.556;9.868;2023-05-07T11:37:20;6.53;;;5.93;;
20830;SDS011;10576;53.556;9.868;2023-05-07T11:39:47;6.50;;;5.90;;
20830;SDS011;10576;53.556;9.868;2023-05-07T11:42:29;6.37;;;5.77;;
20830;SDS011;10576;53.556;9.868;2023-05-07T11:44:59;6.65;;;5.97;;
20830;SDS011;10576;53.556;9.868;2023-05-07T11:47:26;7.55;;;6.32;;
20830;SDS011;10576;53.556;9.868;2023-05-07T11:49:54;6.90;;;6.30;;
20830;SDS011;10576;53.556;9.868;2023-05-07T11:52:21;6.65;;;5.95;;
20830;SDS011;10576;53.556;9.868;2023-05-07T11:54:51;6.30;;;5.75;;
20830;SDS011;10576;53.556;9.868;2023-05-07T11:57:21;6.00;;;5.50;;
20830;SDS011;10576;53.556;9.868;2023-05-07T11:59:47;6.00;;;5.50;;
20830;SDS011;10576;53.556;9.868;2023-05-07T12:02:17;6.13;;;5.53;;
20830;SDS011;10576;53.556;9.868;2023-05-07T12:04:43;6.10;;;5.50;;
20830;SDS011;10576;53.556;9.868;2023-05-07T12:07:12;6.27;;;5.70;;
20830;SDS011;10576;53.556;9.868;2023-05-07T12:09:40;6.00;;;5.47;;
20830;SDS011;10576;53.556;9.868;2023-05-07T12:12:09;5.45;;;5.05;;
20830;SDS011;10576;53.556;9.868;2023-05-07T12:14:39;5.95;;;5.35;;
20830;SDS011;10576;53.556;9.868;2023-05-07T12:17:05;5.55;;;5.05;;
20830;SDS011;10576;53.556;9.868;2023-05-07T12:19:33;5.95;;;4.93;;
20830;SDS011;10576;53.556;9.868;2023-05-07T12:22:00;5.47;;;5.00;;
20830;SDS011;10576;53.556;9.868;2023-05-07T12:24:27;5.50;;;5.00;;
20830;SDS011;10576;53.556;9.868;2023-05-07T12:26:53;5.50;;;5.00;;
20830;SDS011;10576;53.556;9.868;2023-05-07T12:29:22;5.60;;;5.00;;
20830;SDS011;10576;53.556;9.868;2023-05-07T12:31:48;5.13;;;4.72;;
20830;SDS011;10576;53.556;9.868;2023-05-07T12:34:15;5.88;;;4.68;;
20830;SDS011;10576;53.556;9.868;2023-05-07T12:36:41;5.28;;;4.60;;
20830;SDS011;10576;53.556;9.868;2023-05-07T12:39:07;4.90;;;4.50;;
20830;SDS011;10576;53.556;9.868;2023-05-07T12:44:21;4.70;;;4.20;;
20830;SDS011;10576;53.556;9.868;2023-05-07T12:46:48;4.80;;;4.40;;
20830;SDS011;10576;53.556;9.868;2023-05-07T12:49:14;4.60;;;4.20;;
20830;SDS011;10576;53.556;9.868;2023-05-07T12:51:40;5.13;;;4.70;;
20830;SDS011;10576;53.556;9.868;2023-05-07T12:54:05;4.70;;;4.40;;
20830;SDS011;10576;53.556;9.868;2023-05-07T12:56:31;6.23;;;4.73;;
20830;SDS011;10576;53.556;9.868;2023-05-07T12:59:00;4.87;;;4.40;;
20830;SDS011;10576;53.556;9.868;2023-05-07T13:01:29;4.30;;;4.00;;
20830;SDS011;10576;53.556;9.868;2023-05-07T13:03:56;4.22;;;3.85;;
20830;SDS011;10576;53.556;9.868;2023-05-07T13:06:25;3.72;;;3.42;;
20830;SDS011;10576;53.556;9.868;2023-05-07T13:08:51;4.53;;;4.13;;
20830;SDS011;10576;53.556;9.868;2023-05-07T13:11:17;4.23;;;3.70;;
20830;SDS011;10576;53.556;9.868;2023-05-07T13:13:42;4.27;;;3.87;;
20830;SDS011;10576;53.556;9.868;2023-05-07T13:16:09;4.57;;;4.17;;
20830;SDS011;10576;53.556;9.868;2023-05-07T13:18:36;4.40;;;3.70;;
20830;SDS011;10576;53.556;9.868;2023-05-07T13:21:03;4.18;;;3.88;;
20830;SDS011;10576;53.556;9.868;2023-05-07T13:23:30;3.88;;;3.58;;
20830;SDS011;10576;53.556;9.868;2023-05-07T13:25:56;3.83;;;3.50;;
20830;SDS011;10576;53.556;9.868;2023-05-07T13:28:22;6.05;;;3.45;;
20830;SDS011;10576;53.556;9.868;2023-05-07T13:30:48;3.80;;;3.50;;
20830;SDS011;10576;53.556;9.868;2023-05-07T13:33:16;3.70;;;3.40;;
20830;SDS011;10576;53.556;9.868;2023-05-07T13:35:42;3.60;;;3.30;;
20830;SDS011;10576;53.556;9.868;2023-05-07T13:38:08;3.55;;;3.25;;
20830;SDS011;10576;53.556;9.868;2023-05-07T13:40:34;3.30;;;3.10;;
20830;SDS011;10576;53.556;9.868;2023-05-07T13:43:00;3.50;;;3.20;;
20830;SDS011;10576;53.556;9.868;2023-05-07T13:45:27;3.42;;;3.13;;
20830;SDS011;10576;53.556;9.868;2023-05-07T13:47:54;4.07;;;3.28;;
20830;SDS011;10576;53.556;9.868;2023-05-07T13:50:21;3.10;;;2.90;;
20830;SDS011;10576;53.556;9.868;2023-05-07T13:52:47;3.30;;;3.08;;
20830;SDS011;10576;53.556;9.868;2023-05-07T13:55:19;3.33;;;3.10;;
20830;SDS011;10576;53.556;9.868;2023-05-07T13:57:46;3.35;;;3.10;;
20830;SDS011;10576;53.556;9.868;2023-05-07T14:00:12;3.90;;;3.20;;
20830;SDS011;10576;53.556;9.868;2023-05-07T14:02:39;3.35;;;3.13;;
20830;SDS011;10576;53.556;9.868;2023-05-07T14:05:05;3.40;;;3.10;;
20830;SDS011;10576;53.556;9.868;2023-05-07T14:07:31;3.55;;;3.33;;
20830;SDS011;10576;53.556;9.868;2023-05-07T14:09:57;3.67;;;3.38;;
20830;SDS011;10576;53.556;9.868;2023-05-07T14:12:23;3.35;;;3.10;;
20830;SDS011;10576;53.556;9.868;2023-05-07T14:14:49;3.28;;;3.03;;
20830;SDS011;10576;53.556;9.868;2023-05-07T14:17:16;3.20;;;2.90;;
20830;SDS011;10576;53.556;9.868;2023-05-07T14:19:42;3.50;;;3.20;;
20830;SDS011;10576;53.556;9.868;2023-05-07T14:22:08;3.25;;;3.05;;
20830;SDS011;10576;53.556;9.868;2023-05-07T14:24:33;3.30;;;3.00;;
20830;SDS011;10576;53.556;9.868;2023-05-07T14:26:59;4.68;;;3.05;;
20830;SDS011;10576;53.556;9.868;2023-05-07T14:29:25;4.88;;;2.90;;
20830;SDS011;10576;53.556;9.868;2023-05-07T14:31:51;2.85;;;2.65;;
20830;SDS011;10576;53.556;9.868;2023-05-07T14:34:16;3.08;;;2.88;;
20830;SDS011;10576;53.556;9.868;2023-05-07T14:36:42;3.38;;;2.75;;
20830;SDS011;10576;53.556;9.868;2023-05-07T14:39:09;4.70;;;2.80;;
20830;SDS011;10576;53.556;9.868;2023-05-07T14:41:34;2.80;;;2.60;;
20830;SDS011;10576;53.556;9.868;2023-05-07T14:44:00;3.22;;;2.72;;
20830;SDS011;10576;53.556;9.868;2023-05-07T14:46:26;3.20;;;2.88;;
20830;SDS011;10576;53.556;9.868;2023-05-07T14:48:52;2.67;;;2.47;;
20830;SDS011;10576;53.556;9.868;2023-05-07T14:51:18;3.05;;;2.80;;
20830;SDS011;10576;53.556;9.868;2023-05-07T14:53:44;3.10;;;2.90;;
20830;SDS011;10576;53.556;9.868;2023-05-07T14:56:09;2.88;;;2.65;;
20830;SDS011;10576;53.556;9.868;2023-05-07T14:58:35;2.87;;;2.67;;